KOLE/OLE METAR and TAF weather

Enter ICAO airport designator
Station Type Date Time Source
KOLE METAR 2020/12/01 21:15 UTC NOAA

KOLE 012115Z AUTO 25005KT 1SM -SN OVC008 M02/M02 A2947 RMK AO2


Station Type Date Time Source
KOLE Decoded METAR 2020/12/01 21:15 UTC NOAA

Olean Municipal, NY, United States (KOLE) 42-14N 078-22W
Dec 01, 2020 - 04:15 PM EST / 2020.12.01 2115 UTC
Wind: from the WSW (250 degrees) at 6 MPH (5 KT):0
Visibility: 1 mile(s):0
Sky conditions: overcast
Weather: light snow
Temperature: 28 F (-2 C)
Windchill: 21 F (-6 C):1
Dew Point: 28 F (-2 C)
Relative Humidity: 100%
Pressure (altimeter): 29.47 in. Hg (997 hPa)
ob: KOLE 012115Z AUTO 25005KT 1SM -SN OVC008 M02/M02 A2947 RMK AO2
cycle: 21

Station Type Date Time Source
KOLE TAF UTC NOAA

Error!

Example: see airport list